createdAt,value
2018-03-26T00:01:14.958Z,53.15
2018-03-26T00:03:44.047Z,51.70
2018-03-26T00:06:13.271Z,53.55
2018-03-26T00:08:42.433Z,51.08
2018-03-26T00:11:11.567Z,49.40
2018-03-26T00:13:40.765Z,53.38
2018-03-26T00:16:10.025Z,53.90
2018-03-26T00:18:39.074Z,50.67
2018-03-26T00:21:08.460Z,55.03
2018-03-26T00:23:37.468Z,52.78
2018-03-26T00:26:06.447Z,52.55
2018-03-26T00:28:35.445Z,52.03
2018-03-26T00:31:04.702Z,51.10
2018-03-26T00:33:33.842Z,50.80
2018-03-26T00:36:02.998Z,46.70
2018-03-26T00:38:32.161Z,45.38
2018-03-26T00:41:01.111Z,44.17
2018-03-26T00:43:30.177Z,43.05
2018-03-26T00:45:59.336Z,40.88
2018-03-26T00:48:28.480Z,41.08
2018-03-26T00:50:57.641Z,42.90
2018-03-26T00:53:38.000Z,40.28
2018-03-26T00:56:06.965Z,40.67
2018-03-26T00:58:36.131Z,42.42
2018-03-26T01:01:05.322Z,42.85
2018-03-26T01:03:34.425Z,45.65
2018-03-26T01:06:03.449Z,46.22
2018-03-26T01:08:32.713Z,46.05
2018-03-26T01:11:01.853Z,44.60
2018-03-26T01:13:31.053Z,45.85
2018-03-26T01:16:00.211Z,44.30
2018-03-26T01:18:29.308Z,42.90
2018-03-26T01:20:58.443Z,42.90
2018-03-26T01:23:28.282Z,41.60
2018-03-26T01:25:57.445Z,41.90
2018-03-26T01:28:26.727Z,40.70
2018-03-26T01:30:55.847Z,42.00
2018-03-26T01:33:25.009Z,37.38
2018-03-26T01:35:54.097Z,38.10
2018-03-26T01:38:23.337Z,38.97
2018-03-26T01:40:52.267Z,38.58
2018-03-26T01:43:21.557Z,38.65
2018-03-26T01:45:50.650Z,38.88
2018-03-26T01:48:19.896Z,38.38
2018-03-26T01:50:48.946Z,37.20
2018-03-26T01:53:18.051Z,38.67
2018-03-26T01:55:47.231Z,38.03
2018-03-26T01:58:16.259Z,41.03
2018-03-26T02:00:45.370Z,39.05
2018-03-26T02:03:14.608Z,39.08
2018-03-26T02:05:43.661Z,38.78
2018-03-26T02:08:13.729Z,39.17
2018-03-26T02:10:42.774Z,38.50
2018-03-26T02:13:11.865Z,38.85
2018-03-26T02:15:40.997Z,41.13
2018-03-26T02:18:10.339Z,37.92
2018-03-26T02:20:39.324Z,39.15
2018-03-26T02:23:08.438Z,42.13
2018-03-26T02:25:37.763Z,42.83
2018-03-26T02:28:07.003Z,43.42
2018-03-26T02:30:36.000Z,41.55
2018-03-26T02:33:05.298Z,42.80
2018-03-26T02:35:34.441Z,42.30
2018-03-26T02:38:03.653Z,42.05
2018-03-26T02:40:32.852Z,41.40
2018-03-26T02:43:01.979Z,40.47
2018-03-26T02:45:31.152Z,40.78
2018-03-26T02:48:00.292Z,40.03
2018-03-26T02:50:29.299Z,40.70
2018-03-26T02:52:58.449Z,40.60
2018-03-26T02:55:27.414Z,42.30
2018-03-26T02:57:56.831Z,42.20
2018-03-26T03:00:26.127Z,41.75
2018-03-26T03:02:55.107Z,45.55
2018-03-26T03:05:24.060Z,44.40
2018-03-26T03:07:53.055Z,44.58
2018-03-26T03:10:21.983Z,43.63
2018-03-26T03:12:50.970Z,43.87
2018-03-26T03:15:20.098Z,43.10
2018-03-26T03:17:49.177Z,40.83
2018-03-26T03:20:18.276Z,41.42
2018-03-26T03:22:47.509Z,40.30
2018-03-26T03:25:16.713Z,42.97
2018-03-26T03:27:45.869Z,40.95
2018-03-26T03:30:14.956Z,39.08
2018-03-26T03:32:43.966Z,38.78
2018-03-26T03:35:12.978Z,39.17
2018-03-26T03:37:42.159Z,38.65
2018-03-26T03:40:11.293Z,37.40
2018-03-26T03:42:40.442Z,36.22
2018-03-26T03:45:09.454Z,35.95
2018-03-26T03:47:38.443Z,36.05
2018-03-26T03:50:07.653Z,37.97
2018-03-26T03:52:36.866Z,37.55
2018-03-26T03:55:05.845Z,37.88
2018-03-26T03:57:34.779Z,38.45
2018-03-26T04:00:03.898Z,37.28
2018-03-26T04:02:32.942Z,37.35
2018-03-26T04:05:02.070Z,37.80
2018-03-26T04:07:31.190Z,39.33
2018-03-26T04:10:00.144Z,41.37
2018-03-26T04:12:29.271Z,40.72
2018-03-26T04:14:58.422Z,43.00
2018-03-26T04:17:27.537Z,45.85
2018-03-26T04:19:56.522Z,47.75
2018-03-26T04:22:25.678Z,47.05
2018-03-26T04:24:54.782Z,45.80
2018-03-26T04:27:23.921Z,49.53
2018-03-26T04:29:52.946Z,49.47
2018-03-26T04:32:22.010Z,45.85
2018-03-26T04:34:51.205Z,47.42
2018-03-26T04:37:20.165Z,47.38
2018-03-26T04:39:49.248Z,46.97
2018-03-26T04:42:18.242Z,47.60
2018-03-26T04:44:47.157Z,46.40
2018-03-26T04:47:16.165Z,46.90
2018-03-26T04:49:45.167Z,46.60
2018-03-26T04:52:14.371Z,46.37
2018-03-26T04:54:43.593Z,48.87
2018-03-26T04:57:12.671Z,45.28
2018-03-26T04:59:41.971Z,46.42
2018-03-26T05:02:11.136Z,47.35
2018-03-26T05:04:40.112Z,46.65
2018-03-26T05:07:09.247Z,45.65
2018-03-26T05:09:38.237Z,45.70
2018-03-26T05:12:07.281Z,46.42
2018-03-26T05:14:36.481Z,46.78
2018-03-26T05:17:05.691Z,46.88
2018-03-26T05:19:34.783Z,46.05
2018-03-26T05:22:03.919Z,43.42
2018-03-26T05:24:33.069Z,47.17
2018-03-26T05:27:02.014Z,53.83
2018-03-26T05:29:31.213Z,43.25
2018-03-26T05:32:00.357Z,49.58
2018-03-26T05:34:29.918Z,49.47
2018-03-26T05:36:59.230Z,50.40
2018-03-26T05:39:28.361Z,48.58
2018-03-26T05:41:57.386Z,53.35
2018-03-26T05:44:26.720Z,49.30
2018-03-26T05:46:55.847Z,48.38
2018-03-26T05:49:24.853Z,51.67
2018-03-26T05:51:53.891Z,55.42
2018-03-26T05:54:22.942Z,56.13
2018-03-26T05:56:51.929Z,51.03
2018-03-26T05:59:21.125Z,50.47
2018-03-26T06:01:50.229Z,53.87
2018-03-26T06:04:19.827Z,50.80
2018-03-26T06:06:48.935Z,52.17
2018-03-26T06:09:18.182Z,50.90
2018-03-26T06:11:48.250Z,46.70
2018-03-26T06:14:17.241Z,52.35
2018-03-26T06:16:57.831Z,49.63
2018-03-26T06:19:26.801Z,49.33
2018-03-26T06:21:56.038Z,46.42
2018-03-26T06:24:24.991Z,52.70
2018-03-26T06:26:53.986Z,45.88
2018-03-26T06:29:23.059Z,54.15
2018-03-26T06:31:52.024Z,51.42
2018-03-26T06:34:20.935Z,55.00
2018-03-26T06:39:55.641Z,54.63
2018-03-26T06:42:24.871Z,53.87
2018-03-26T06:44:53.934Z,52.47
2018-03-26T06:47:23.317Z,53.05
2018-03-26T06:49:52.531Z,48.42
2018-03-26T06:52:21.694Z,50.45
2018-03-26T06:54:50.846Z,54.78
2018-03-26T06:57:19.909Z,52.65
2018-03-26T06:59:49.327Z,52.22
2018-03-26T07:02:18.405Z,52.33
2018-03-26T07:04:47.953Z,55.47
2018-03-26T07:07:17.122Z,49.67
2018-03-26T07:09:46.247Z,47.88
2018-03-26T07:12:15.350Z,56.10
2018-03-26T07:14:44.586Z,107.95
2018-03-26T07:17:13.947Z,53.72
2018-03-26T07:19:43.055Z,47.95
2018-03-26T07:22:12.813Z,52.17
2018-03-26T07:24:41.915Z,47.55
2018-03-26T07:27:10.994Z,53.42
2018-03-26T07:29:40.229Z,46.95
2018-03-26T07:32:09.308Z,55.35
2018-03-26T07:34:38.271Z,47.15
2018-03-26T07:37:07.341Z,50.95
2018-03-26T07:39:37.077Z,48.10
2018-03-26T07:42:06.157Z,53.13
2018-03-26T07:44:35.335Z,49.90
2018-03-26T07:47:04.574Z,46.20
2018-03-26T07:49:33.834Z,46.90
2018-03-26T07:52:02.795Z,48.30
2018-03-26T07:54:31.945Z,47.90
2018-03-26T07:57:01.350Z,47.15
2018-03-26T07:59:30.295Z,45.05
2018-03-26T08:01:59.514Z,47.05
2018-03-26T08:04:28.790Z,44.30
2018-03-26T08:06:57.987Z,49.05
2018-03-26T08:09:27.028Z,44.97
2018-03-26T08:11:57.069Z,42.65
2018-03-26T08:14:26.339Z,43.28
2018-03-26T08:16:55.514Z,43.38
2018-03-26T08:19:24.510Z,36.83
2018-03-26T08:21:54.026Z,44.38
2018-03-26T08:24:23.531Z,38.65
2018-03-26T08:26:52.957Z,41.80
2018-03-26T08:29:22.245Z,40.97
2018-03-26T08:31:51.914Z,43.38
2018-03-26T08:34:21.307Z,46.35
2018-03-26T08:36:50.647Z,46.42
2018-03-26T08:39:19.793Z,45.58
2018-03-26T08:41:49.142Z,47.53
2018-03-26T08:44:18.267Z,51.85
2018-03-26T08:46:47.442Z,50.58
2018-03-26T08:49:16.409Z,42.62
2018-03-26T08:51:45.631Z,37.72
2018-03-26T08:54:14.642Z,43.90
2018-03-26T08:56:43.645Z,39.17
2018-03-26T08:59:12.837Z,38.50
2018-03-26T09:01:42.320Z,39.67
2018-03-26T09:04:11.582Z,41.55
2018-03-26T09:06:40.783Z,44.53
2018-03-26T09:09:09.920Z,42.70
2018-03-26T09:11:39.166Z,39.85
2018-03-26T09:14:08.411Z,47.95
2018-03-26T09:16:37.485Z,46.57
2018-03-26T09:19:06.665Z,46.37
2018-03-26T09:21:35.900Z,42.17
2018-03-26T09:24:05.067Z,46.90
2018-03-26T09:26:34.170Z,44.10
2018-03-26T09:29:03.302Z,43.00
2018-03-26T09:31:32.705Z,40.78
2018-03-26T09:34:01.728Z,38.97
2018-03-26T09:36:30.837Z,49.00
2018-03-26T09:38:59.900Z,45.08
2018-03-26T09:41:29.243Z,36.55
2018-03-26T09:43:58.599Z,41.28
2018-03-26T09:46:27.787Z,44.72
2018-03-26T09:48:56.970Z,44.45
2018-03-26T09:51:26.442Z,48.92
2018-03-26T09:53:55.475Z,51.03
2018-03-26T09:56:24.619Z,49.78
2018-03-26T09:58:53.782Z,41.15
2018-03-26T10:01:22.957Z,35.15
2018-03-26T10:03:52.241Z,40.17
2018-03-26T10:06:21.430Z,38.00
2018-03-26T10:08:50.517Z,38.47
2018-03-26T10:11:19.681Z,42.53
2018-03-26T10:13:48.969Z,46.13
2018-03-26T10:16:18.378Z,47.62
2018-03-26T10:18:47.395Z,44.67
2018-03-26T10:21:16.631Z,46.00
2018-03-26T10:23:45.687Z,48.78
2018-03-26T10:26:14.943Z,44.92
2018-03-26T10:28:44.125Z,46.35
2018-03-26T10:31:13.421Z,49.30
2018-03-26T10:33:43.483Z,51.60
2018-03-26T10:36:12.722Z,47.92
2018-03-26T10:38:41.926Z,44.33
2018-03-26T10:41:11.218Z,42.67
2018-03-26T10:43:40.522Z,40.03
2018-03-26T10:46:09.771Z,35.75
2018-03-26T10:48:38.913Z,30.98
2018-03-26T10:51:08.024Z,26.75
2018-03-26T10:53:37.119Z,23.53
2018-03-26T10:56:06.472Z,25.40
2018-03-26T10:58:35.870Z,23.10
2018-03-26T11:01:05.205Z,23.67
2018-03-26T11:03:34.458Z,20.50
2018-03-26T11:06:03.617Z,20.03
2018-03-26T11:08:32.768Z,22.07
2018-03-26T11:11:02.023Z,17.17
2018-03-26T11:13:31.293Z,18.90
2018-03-26T11:16:01.165Z,22.60
2018-03-26T11:18:30.245Z,26.20
2018-03-26T11:20:59.407Z,19.50
2018-03-26T11:23:28.655Z,17.30
2018-03-26T11:25:58.129Z,17.23
2018-03-26T11:28:27.280Z,17.10
2018-03-26T11:30:56.477Z,17.60
2018-03-26T11:33:25.674Z,19.10
2018-03-26T11:35:54.726Z,20.23
2018-03-26T11:38:24.392Z,17.33
2018-03-26T11:40:53.515Z,11.57
2018-03-26T11:43:22.706Z,8.43
2018-03-26T11:45:51.955Z,7.80
2018-03-26T11:48:21.170Z,9.30
2018-03-26T11:50:50.234Z,9.57
2018-03-26T11:53:19.514Z,9.17
2018-03-26T11:55:48.768Z,8.57
2018-03-26T11:58:18.119Z,7.60
2018-03-26T12:00:47.613Z,8.27
2018-03-26T12:03:16.919Z,7.83
2018-03-26T12:05:46.170Z,7.23
2018-03-26T12:08:15.458Z,7.00
2018-03-26T12:10:44.649Z,8.00
2018-03-26T12:13:13.917Z,6.30
2018-03-26T12:15:43.217Z,6.33
2018-03-26T12:18:12.360Z,5.53
2018-03-26T12:20:53.184Z,5.63
2018-03-26T12:23:33.745Z,5.70
2018-03-26T12:26:02.599Z,11.03
2018-03-26T12:28:43.107Z,4.50
2018-03-26T12:31:12.125Z,4.37
2018-03-26T12:33:52.702Z,3.87
2018-03-26T12:36:21.948Z,3.40
2018-03-26T12:38:51.277Z,3.53
2018-03-26T12:41:20.606Z,3.00
2018-03-26T12:43:49.946Z,4.80
2018-03-26T12:46:30.497Z,4.83
2018-03-26T12:48:59.547Z,3.67
2018-03-26T12:51:40.175Z,4.97
2018-03-26T12:54:09.290Z,4.50
2018-03-26T12:56:38.548Z,40.80
2018-03-26T12:59:07.814Z,33.67
2018-03-26T13:01:48.624Z,5.33
2018-03-26T13:04:17.587Z,5.00
2018-03-26T13:06:47.006Z,6.00
2018-03-26T13:09:16.222Z,4.43
2018-03-26T13:11:45.402Z,5.90
2018-03-26T13:14:14.625Z,5.53
2018-03-26T13:16:43.847Z,4.47
2018-03-26T13:19:12.971Z,4.20
2018-03-26T13:21:42.343Z,4.53
2018-03-26T13:24:11.718Z,4.50
2018-03-26T13:26:40.845Z,5.00
2018-03-26T13:29:10.231Z,5.87
2018-03-26T13:31:39.342Z,5.63
2018-03-26T13:34:08.601Z,6.60
2018-03-26T13:36:37.880Z,7.10
2018-03-26T13:39:07.323Z,8.53
2018-03-26T13:41:36.642Z,9.73
2018-03-26T13:44:06.026Z,10.13
2018-03-26T13:46:36.253Z,8.47
2018-03-26T13:49:05.717Z,7.93
2018-03-26T13:51:34.867Z,7.43
2018-03-26T13:54:04.267Z,6.83
2018-03-26T13:56:33.643Z,7.03
2018-03-26T13:59:02.914Z,5.70
2018-03-26T14:01:32.491Z,5.73
2018-03-26T14:04:01.839Z,6.33
2018-03-26T14:06:31.015Z,6.80
2018-03-26T14:12:16.572Z,9.00
2018-03-26T14:14:57.141Z,8.80
2018-03-26T14:17:38.214Z,7.80
2018-03-26T14:20:07.573Z,7.77
2018-03-26T14:22:36.743Z,4.73
2018-03-26T14:25:06.079Z,6.43
2018-03-26T14:27:35.279Z,5.50
2018-03-26T14:30:04.804Z,5.60
2018-03-26T14:32:34.098Z,7.07
2018-03-26T14:35:14.621Z,6.53
2018-03-26T14:37:44.190Z,5.57
2018-03-26T14:40:13.669Z,6.93
2018-03-26T14:42:43.058Z,7.80
2018-03-26T14:45:12.511Z,5.23
2018-03-26T14:47:41.805Z,4.90
2018-03-26T14:50:11.891Z,4.50
2018-03-26T14:52:41.364Z,5.53
2018-03-26T14:55:10.629Z,5.37
2018-03-26T14:57:39.833Z,5.00
2018-03-26T15:00:09.131Z,5.20
2018-03-26T15:02:38.394Z,4.10
2018-03-26T15:05:07.751Z,3.03
2018-03-26T15:07:36.977Z,3.37
2018-03-26T15:10:06.331Z,3.07
2018-03-26T15:12:35.841Z,3.33
2018-03-26T15:15:05.032Z,2.83
2018-03-26T15:17:34.290Z,4.03
2018-03-26T15:20:03.620Z,4.30
2018-03-26T15:22:32.981Z,3.53
2018-03-26T15:25:02.241Z,6.67
2018-03-26T15:27:31.502Z,8.50
2018-03-26T15:30:00.751Z,7.83
2018-03-26T15:32:30.178Z,20.47
2018-03-26T15:34:59.405Z,17.43
2018-03-26T15:37:29.152Z,13.53
2018-03-26T15:39:58.546Z,6.47
2018-03-26T15:42:27.900Z,6.17
2018-03-26T15:44:57.246Z,14.23
2018-03-26T15:47:26.388Z,15.57
2018-03-26T15:49:55.527Z,18.07
2018-03-26T15:52:24.640Z,18.97
2018-03-26T15:54:53.933Z,15.10
2018-03-26T15:57:23.075Z,13.00
2018-03-26T15:59:52.247Z,9.10
2018-03-26T16:02:21.490Z,10.40
2018-03-26T16:04:50.619Z,15.53
2018-03-26T16:07:19.820Z,7.67
2018-03-26T16:09:48.986Z,12.47
2018-03-26T16:12:18.152Z,21.30
2018-03-26T16:14:47.533Z,16.00
2018-03-26T16:17:16.629Z,34.50
2018-03-26T16:19:45.779Z,22.27
2018-03-26T16:22:14.925Z,24.77
2018-03-26T16:24:44.121Z,36.23
2018-03-26T16:27:13.510Z,29.03
2018-03-26T16:29:42.702Z,33.57
2018-03-26T16:32:12.009Z,39.33
2018-03-26T16:34:41.118Z,41.13
2018-03-26T16:37:10.418Z,33.90
2018-03-26T16:39:39.802Z,22.57
2018-03-26T16:42:27.880Z,18.97
2018-03-26T16:44:56.860Z,16.90
2018-03-26T16:47:26.284Z,12.53
2018-03-26T16:49:55.554Z,14.60
2018-03-26T16:52:24.671Z,15.33
2018-03-26T16:54:53.983Z,19.00
2018-03-26T16:57:23.103Z,20.37
2018-03-26T16:59:52.230Z,13.07
2018-03-26T17:02:21.582Z,13.67
2018-03-26T17:04:50.858Z,17.97
2018-03-26T17:07:19.929Z,16.27
2018-03-26T17:09:49.380Z,14.18
2018-03-26T17:12:18.598Z,17.13
2018-03-26T17:14:47.677Z,17.57
2018-03-26T17:17:16.757Z,17.77
2018-03-26T17:19:46.005Z,20.45
2018-03-26T17:22:15.296Z,13.38
2018-03-26T17:24:44.435Z,14.00
2018-03-26T17:27:13.645Z,14.48
2018-03-26T17:29:42.820Z,13.03
2018-03-26T17:32:11.828Z,15.53
2018-03-26T17:34:41.011Z,16.45
2018-03-26T17:37:10.206Z,20.95
2018-03-26T17:39:39.265Z,23.83
2018-03-26T17:42:08.696Z,17.07
2018-03-26T17:44:37.894Z,16.60
2018-03-26T17:47:07.124Z,16.63
2018-03-26T17:49:37.041Z,17.73
2018-03-26T17:52:06.099Z,16.45
2018-03-26T17:54:35.442Z,16.33
2018-03-26T17:57:04.706Z,31.40
2018-03-26T17:59:33.828Z,15.90
2018-03-26T18:02:02.954Z,16.17
2018-03-26T18:04:32.177Z,17.23
2018-03-26T18:07:04.712Z,17.33
2018-03-26T18:09:33.980Z,17.08
2018-03-26T18:12:03.066Z,19.70
2018-03-26T18:14:32.155Z,18.00
2018-03-26T18:17:01.347Z,18.87
2018-03-26T18:19:30.454Z,23.27
2018-03-26T18:21:59.905Z,18.87
2018-03-26T18:24:29.191Z,20.37
2018-03-26T18:26:58.521Z,19.33
2018-03-26T18:29:27.950Z,24.83
2018-03-26T18:31:57.300Z,20.90
2018-03-26T18:34:26.329Z,23.10
2018-03-26T18:36:55.450Z,24.45
2018-03-26T18:39:24.615Z,22.43
2018-03-26T18:41:53.799Z,23.35
2018-03-26T18:44:23.188Z,17.50
2018-03-26T18:46:52.263Z,16.33
2018-03-26T18:49:21.441Z,29.27
2018-03-26T18:51:50.509Z,59.77
2018-03-26T18:54:19.802Z,19.00
2018-03-26T18:56:49.018Z,18.43
2018-03-26T18:59:18.134Z,18.40
2018-03-26T19:01:47.403Z,19.33
2018-03-26T19:04:17.091Z,17.73
2018-03-26T19:06:46.193Z,18.67
2018-03-26T19:09:15.394Z,17.30
2018-03-26T19:11:44.476Z,18.33
2018-03-26T19:14:13.595Z,19.95
2018-03-26T19:16:42.731Z,25.45
2018-03-26T19:19:11.805Z,29.87
2018-03-26T19:21:40.991Z,23.33
2018-03-26T19:24:10.073Z,22.43
2018-03-26T19:26:39.287Z,23.42
2018-03-26T19:29:08.460Z,38.22
2018-03-26T19:31:37.595Z,34.47
2018-03-26T19:34:06.681Z,35.05
2018-03-26T19:36:35.788Z,34.92
2018-03-26T19:39:06.942Z,48.35
2018-03-26T19:41:36.009Z,29.67
2018-03-26T19:44:05.175Z,27.35
2018-03-26T19:46:34.221Z,26.50
2018-03-26T19:49:03.313Z,23.40
2018-03-26T19:51:32.411Z,22.73
2018-03-26T19:54:01.514Z,25.42
2018-03-26T19:56:30.531Z,27.13
2018-03-26T19:58:59.698Z,22.25
2018-03-26T20:01:28.972Z,21.92
2018-03-26T20:03:58.193Z,22.05
2018-03-26T20:06:27.415Z,24.87
2018-03-26T20:08:56.541Z,24.05
2018-03-26T20:11:25.726Z,28.85
2018-03-26T20:13:54.750Z,26.35
2018-03-26T20:16:23.837Z,27.02
2018-03-26T20:18:53.019Z,29.85
2018-03-26T20:21:22.381Z,31.65
2018-03-26T20:23:51.650Z,27.85
2018-03-26T20:26:20.661Z,27.15
2018-03-26T20:28:49.773Z,27.42
2018-03-26T20:31:18.980Z,25.80
2018-03-26T20:33:48.143Z,30.25
2018-03-26T20:36:17.223Z,28.75
2018-03-26T20:38:46.511Z,24.60
2018-03-26T20:41:15.667Z,27.55
2018-03-26T20:43:45.214Z,22.95
2018-03-26T20:46:14.573Z,18.65
2018-03-26T20:48:43.897Z,18.62
2018-03-26T20:51:13.145Z,18.52
2018-03-26T20:53:42.329Z,19.83
2018-03-26T20:56:11.495Z,18.42
2018-03-26T20:58:40.671Z,16.20
2018-03-26T21:01:09.981Z,15.52
2018-03-26T21:03:39.087Z,15.97
2018-03-26T21:06:08.336Z,15.15
2018-03-26T21:08:37.499Z,16.48
2018-03-26T21:11:06.789Z,16.20
2018-03-26T21:13:35.936Z,13.15
2018-03-26T21:16:05.179Z,13.60
2018-03-26T21:18:34.378Z,16.02
2018-03-26T21:21:03.666Z,12.85
2018-03-26T21:23:32.779Z,12.50
2018-03-26T21:26:02.067Z,11.98
2018-03-26T21:28:31.230Z,12.05
2018-03-26T21:31:00.360Z,10.97
2018-03-26T21:33:29.645Z,10.00
2018-03-26T21:35:58.887Z,11.98
2018-03-26T21:38:27.909Z,11.73
2018-03-26T21:40:57.011Z,11.85
2018-03-26T21:43:26.182Z,13.13
2018-03-26T21:45:55.339Z,12.15
2018-03-26T21:48:24.945Z,12.97
2018-03-26T21:50:54.190Z,12.68
2018-03-26T21:53:23.475Z,12.43
2018-03-26T21:55:52.553Z,12.60
2018-03-26T21:58:21.645Z,13.27
2018-03-26T22:00:50.757Z,13.18
2018-03-26T22:03:19.790Z,12.20
2018-03-26T22:05:48.927Z,12.53
2018-03-26T22:08:18.065Z,12.27
2018-03-26T22:10:47.069Z,12.98
2018-03-26T22:13:16.151Z,13.55
2018-03-26T22:15:45.221Z,12.27
2018-03-26T22:18:14.331Z,13.43
2018-03-26T22:20:43.548Z,12.30
2018-03-26T22:23:12.734Z,13.00
2018-03-26T22:25:41.811Z,13.13
2018-03-26T22:28:11.159Z,13.25
2018-03-26T22:30:40.534Z,15.13
2018-03-26T22:33:09.619Z,17.83
2018-03-26T22:35:38.761Z,17.80
2018-03-26T22:38:07.853Z,18.20
2018-03-26T22:40:37.209Z,19.73
2018-03-26T22:43:06.527Z,22.13
2018-03-26T22:45:35.951Z,18.12
2018-03-26T22:48:05.118Z,16.27
2018-03-26T22:50:34.551Z,16.27
2018-03-26T22:53:03.986Z,14.13
2018-03-26T22:55:33.256Z,22.37
2018-03-26T22:58:02.550Z,154.73
2018-03-26T23:00:31.985Z,17.45
2018-03-26T23:03:01.436Z,17.65
2018-03-26T23:05:31.724Z,17.10
2018-03-26T23:08:00.993Z,21.60
2018-03-26T23:10:30.495Z,25.08
2018-03-26T23:12:59.897Z,21.77
2018-03-26T23:15:29.008Z,25.00
2018-03-26T23:17:58.125Z,24.37
2018-03-26T23:20:27.165Z,24.55
2018-03-26T23:22:56.376Z,24.67
2018-03-26T23:25:25.627Z,25.23
2018-03-26T23:27:54.821Z,23.80
2018-03-26T23:30:23.966Z,28.48
2018-03-26T23:32:53.333Z,28.95
2018-03-26T23:35:22.367Z,26.93
2018-03-26T23:37:51.655Z,26.53
2018-03-26T23:40:20.673Z,27.30
2018-03-26T23:42:49.891Z,29.03
2018-03-26T23:45:19.387Z,26.10
2018-03-26T23:47:48.589Z,26.17
2018-03-26T23:50:17.866Z,25.37
2018-03-26T23:52:46.968Z,27.13
2018-03-26T23:55:16.106Z,25.77
2018-03-26T23:57:45.183Z,21.83
